createdAt,value
2016-05-24T00:00:58.810Z,0
2016-05-24T00:01:59.265Z,0
2016-05-24T00:02:58.707Z,0
2016-05-24T00:03:58.428Z,0
2016-05-24T00:04:58.306Z,0
2016-05-24T00:05:58.511Z,0
2016-05-24T00:06:58.576Z,0
2016-05-24T00:07:58.609Z,0
2016-05-24T00:08:58.644Z,0
2016-05-24T00:09:58.240Z,0
2016-05-24T00:10:58.337Z,0
2016-05-24T00:11:53.574Z,0
2016-05-24T00:12:57.858Z,0
2016-05-24T00:13:58.955Z,0
2016-05-24T00:14:57.785Z,0
2016-05-24T00:15:58.319Z,0
2016-05-24T00:16:53.447Z,0
2016-05-24T00:17:53.309Z,0
2016-05-24T00:18:52.968Z,0
2016-05-24T00:19:53.252Z,0
2016-05-24T00:20:53.067Z,0
2016-05-24T00:21:53.195Z,0
2016-05-24T00:22:53.182Z,0
2016-05-24T00:23:53.153Z,0
2016-05-24T00:24:53.155Z,0
2016-05-24T00:25:53.112Z,0
2016-05-24T00:26:52.926Z,0
2016-05-24T00:27:53.055Z,0
2016-05-24T00:28:52.870Z,0
2016-05-24T00:29:53.044Z,0
2016-05-24T00:30:52.671Z,0
2016-05-24T00:31:52.800Z,0
2016-05-24T00:32:52.943Z,0
2016-05-24T00:33:52.759Z,0
2016-05-24T00:34:52.729Z,0
2016-05-24T00:35:52.873Z,0
2016-05-24T00:36:52.844Z,0
2016-05-24T00:37:52.831Z,0
2016-05-24T00:38:52.787Z,0
2016-05-24T00:39:52.775Z,0
2016-05-24T00:40:52.746Z,0
2016-05-24T00:41:52.717Z,0
2016-05-24T00:42:52.548Z,0
2016-05-24T00:43:52.675Z,0
2016-05-24T00:44:52.663Z,0
2016-05-24T00:45:52.478Z,0
2016-05-24T00:46:52.622Z,0
2016-05-24T00:47:52.577Z,0
2016-05-24T00:48:52.549Z,0
2016-05-24T00:49:52.223Z,0
2016-05-24T00:50:52.508Z,0
2016-05-24T00:51:52.494Z,0
2016-05-24T00:52:52.466Z,0
2016-05-24T00:53:52.437Z,0
2016-05-24T00:54:52.408Z,0
2016-05-24T00:55:52.396Z,0
2016-05-24T00:56:52.211Z,0
2016-05-24T00:57:52.198Z,0
2016-05-24T00:58:52.326Z,0
2016-05-24T00:59:52.140Z,0
2016-05-24T01:00:52.279Z,0
2016-05-24T01:01:52.138Z,0
2016-05-24T01:02:52.294Z,0
2016-05-24T01:03:52.295Z,0
2016-05-24T01:04:52.309Z,0
2016-05-24T01:05:52.146Z,0
2016-05-24T01:06:52.284Z,0
2016-05-24T01:07:52.108Z,0
2016-05-24T01:08:52.263Z,0
2016-05-24T01:09:52.088Z,0
2016-05-24T01:10:52.083Z,0
2016-05-24T01:11:52.214Z,0
2016-05-24T01:12:52.190Z,0
2016-05-24T01:13:52.164Z,0
2016-05-24T01:14:51.984Z,0
2016-05-24T01:15:51.974Z,0
2016-05-24T01:16:51.962Z,0
2016-05-24T01:17:52.075Z,0
2016-05-24T01:18:52.063Z,0
2016-05-24T01:19:52.019Z,0
2016-05-24T01:20:52.023Z,0
2016-05-24T01:21:51.824Z,0
2016-05-24T01:22:51.967Z,0
2016-05-24T01:23:51.924Z,0
2016-05-24T01:24:51.910Z,0
2016-05-24T01:25:51.743Z,0
2016-05-24T01:26:51.870Z,0
2016-05-24T01:27:51.702Z,0
2016-05-24T01:28:51.813Z,0
2016-05-24T01:29:51.926Z,0
2016-05-24T01:30:51.757Z,0
2016-05-24T01:31:51.745Z,0
2016-05-24T01:32:51.717Z,0
2016-05-24T01:33:51.687Z,0
2016-05-24T01:34:51.689Z,0
2016-05-24T01:35:51.505Z,0
2016-05-24T01:36:51.632Z,0
2016-05-24T01:37:51.605Z,0
2016-05-24T01:38:51.592Z,0
2016-05-24T01:39:51.563Z,0
2016-05-24T01:40:51.378Z,0
2016-05-24T01:41:51.521Z,0
2016-05-24T01:42:51.493Z,0
2016-05-24T01:43:51.463Z,0
2016-05-24T01:44:51.436Z,0
2016-05-24T01:45:51.407Z,0
2016-05-24T01:46:51.222Z,0
2016-05-24T01:47:51.365Z,0
2016-05-24T01:48:51.337Z,0
2016-05-24T01:49:51.309Z,0
2016-05-24T01:50:51.140Z,0
2016-05-24T01:51:51.251Z,0
2016-05-24T01:52:51.238Z,0
2016-05-24T01:53:51.069Z,0
2016-05-24T01:54:51.197Z,0
2016-05-24T01:55:51.200Z,0
2016-05-24T01:56:51.156Z,0
2016-05-24T01:57:50.970Z,0
2016-05-24T01:58:51.098Z,0
2016-05-24T01:59:51.086Z,0
2016-05-24T02:00:50.901Z,0
2016-05-24T02:01:51.028Z,0
2016-05-24T02:02:50.703Z,0
2016-05-24T02:03:50.986Z,0
2016-05-24T02:04:50.958Z,0
2016-05-24T02:05:50.944Z,0
2016-05-24T02:06:50.901Z,0
2016-05-24T02:07:50.904Z,0
2016-05-24T02:08:50.860Z,0
2016-05-24T02:09:50.830Z,0
2016-05-24T02:10:50.802Z,0
2016-05-24T02:11:50.649Z,0
2016-05-24T02:12:50.761Z,0
2016-05-24T02:13:50.733Z,0
2016-05-24T02:14:51.016Z,0
2016-05-24T02:15:50.691Z,0
2016-05-24T02:16:55.693Z,0
2016-05-24T02:17:54.446Z,0
2016-05-24T02:18:50.621Z,0
2016-05-24T02:19:50.576Z,0
2016-05-24T02:20:50.580Z,0
2016-05-24T02:21:50.551Z,0
2016-05-24T02:22:50.365Z,0
2016-05-24T02:23:50.337Z,0
2016-05-24T02:24:50.465Z,0
2016-05-24T02:25:50.281Z,0
2016-05-24T02:26:50.439Z,0
2016-05-24T02:27:50.270Z,0
2016-05-24T02:28:50.382Z,0
2016-05-24T02:29:50.604Z,0
2016-05-24T02:30:50.325Z,0
2016-05-24T02:31:50.312Z,0
2016-05-24T02:32:50.283Z,0
2016-05-24T02:33:50.255Z,0
2016-05-24T02:34:50.085Z,0
2016-05-24T02:35:50.214Z,0
2016-05-24T02:36:50.200Z,0
2016-05-24T02:37:50.172Z,0
2016-05-24T02:38:50.002Z,0
2016-05-24T02:39:49.974Z,0
2016-05-24T02:40:49.946Z,0
2016-05-24T02:41:49.917Z,0
2016-05-24T02:42:50.030Z,0
2016-05-24T02:43:50.016Z,0
2016-05-24T02:44:50.362Z,0
2016-05-24T02:45:50.068Z,0
2016-05-24T02:46:50.008Z,0
2016-05-24T02:47:49.761Z,0
2016-05-24T02:48:49.811Z,0
2016-05-24T02:49:49.626Z,0
2016-05-24T02:50:49.848Z,0
2016-05-24T02:51:49.818Z,0
2016-05-24T02:52:49.806Z,0
2016-05-24T02:53:49.777Z,0
2016-05-24T02:54:49.796Z,0
2016-05-24T02:55:49.564Z,4
2016-05-24T02:56:49.692Z,4
2016-05-24T02:57:49.523Z,4
2016-05-24T02:58:49.495Z,4
2016-05-24T02:59:49.918Z,0
2016-05-24T03:00:49.609Z,4
2016-05-24T03:01:49.580Z,4
2016-05-24T03:02:49.567Z,4
2016-05-24T03:03:49.523Z,4
2016-05-24T03:04:49.511Z,4
2016-05-24T03:05:49.169Z,8
2016-05-24T03:06:49.297Z,8
2016-05-24T03:07:49.440Z,8
2016-05-24T03:08:49.114Z,8
2016-05-24T03:09:49.383Z,8
2016-05-24T03:10:49.370Z,8
2016-05-24T03:11:49.325Z,8
2016-05-24T03:12:49.328Z,8
2016-05-24T03:13:49.299Z,12
2016-05-24T03:14:49.583Z,12
2016-05-24T03:15:49.243Z,12
2016-05-24T03:16:49.058Z,12
2016-05-24T03:17:49.186Z,12
2016-05-24T03:18:49.188Z,20
2016-05-24T03:19:48.987Z,24
2016-05-24T03:20:49.131Z,20
2016-05-24T03:21:49.102Z,24
2016-05-24T03:22:49.074Z,24
2016-05-24T03:23:49.046Z,24
2016-05-24T03:24:48.876Z,24
2016-05-24T03:25:49.020Z,28
2016-05-24T03:26:48.976Z,28
2016-05-24T03:27:48.650Z,36
2016-05-24T03:28:48.950Z,36
2016-05-24T03:29:49.093Z,36
2016-05-24T03:30:48.720Z,40
2016-05-24T03:31:48.692Z,48
2016-05-24T03:32:48.836Z,56
2016-05-24T03:33:48.650Z,60
2016-05-24T03:34:48.637Z,68
2016-05-24T03:35:48.765Z,68
2016-05-24T03:36:48.580Z,72
2016-05-24T03:37:48.709Z,76
2016-05-24T03:38:48.680Z,72
2016-05-24T03:39:48.651Z,84
2016-05-24T03:40:48.638Z,96
2016-05-24T03:41:48.610Z,100
2016-05-24T03:42:48.299Z,116
2016-05-24T03:43:48.397Z,128
2016-05-24T03:44:48.664Z,120
2016-05-24T03:45:48.511Z,124
2016-05-24T03:46:48.482Z,140
2016-05-24T03:47:48.469Z,152
2016-05-24T03:48:48.440Z,188
2016-05-24T03:49:48.413Z,208
2016-05-24T03:50:48.243Z,312
2016-05-24T03:51:48.387Z,216
2016-05-24T03:52:48.185Z,232
2016-05-24T03:53:48.330Z,232
2016-05-24T03:54:48.145Z,240
2016-05-24T03:55:48.273Z,256
2016-05-24T03:56:48.103Z,280
2016-05-24T03:57:48.231Z,268
2016-05-24T03:58:48.202Z,228
2016-05-24T03:59:48.361Z,208
2016-05-24T04:00:48.161Z,204
2016-05-24T04:01:48.132Z,208
2016-05-24T04:02:47.962Z,196
2016-05-24T04:03:47.934Z,192
2016-05-24T04:04:48.047Z,204
2016-05-24T04:05:47.893Z,200
2016-05-24T04:06:48.005Z,216
2016-05-24T04:07:47.992Z,204
2016-05-24T04:08:47.963Z,216
2016-05-24T04:09:47.935Z,236
2016-05-24T04:10:47.922Z,244
2016-05-24T04:11:47.909Z,280
2016-05-24T04:12:47.708Z,288
2016-05-24T04:13:47.852Z,316
2016-05-24T04:14:47.526Z,280
2016-05-24T04:15:47.794Z,312
2016-05-24T04:16:47.783Z,360
2016-05-24T04:17:47.316Z,368
2016-05-24T04:18:47.569Z,356
2016-05-24T04:19:47.696Z,376
2016-05-24T04:20:47.667Z,400
2016-05-24T04:21:47.639Z,460
2016-05-24T04:22:47.626Z,508
2016-05-24T04:23:47.457Z,516
2016-05-24T04:24:47.585Z,536
2016-05-24T04:25:47.556Z,524
2016-05-24T04:26:47.527Z,508
2016-05-24T04:27:47.498Z,576
2016-05-24T04:28:47.346Z,676
2016-05-24T04:29:47.239Z,664
2016-05-24T04:30:47.429Z,700
2016-05-24T04:31:47.400Z,728
2016-05-24T04:32:47.372Z,828
2016-05-24T04:33:47.359Z,908
2016-05-24T04:34:47.331Z,732
2016-05-24T04:35:47.161Z,684
2016-05-24T04:36:47.133Z,620
2016-05-24T04:37:47.260Z,608
2016-05-24T04:38:47.231Z,616
2016-05-24T04:39:47.219Z,728
2016-05-24T04:40:47.190Z,844
2016-05-24T04:41:47.005Z,880
2016-05-24T04:42:46.977Z,860
2016-05-24T04:43:46.635Z,1000
2016-05-24T04:44:47.092Z,1044
2016-05-24T04:45:47.078Z,1188
2016-05-24T04:46:47.050Z,1036
2016-05-24T04:47:47.005Z,1052
2016-05-24T04:48:46.993Z,1048
2016-05-24T04:49:46.963Z,920
2016-05-24T04:50:46.952Z,1328
2016-05-24T04:51:46.924Z,1452
2016-05-24T04:52:46.754Z,1228
2016-05-24T04:53:46.709Z,1224
2016-05-24T04:54:46.696Z,1372
2016-05-24T04:55:46.855Z,1432
2016-05-24T04:56:46.796Z,1520
2016-05-24T04:57:46.783Z,1496
2016-05-24T04:58:46.738Z,1508
2016-05-24T04:59:46.740Z,1596
2016-05-24T05:00:46.588Z,1820
2016-05-24T05:01:46.371Z,2124
2016-05-24T05:02:46.499Z,2232
2016-05-24T05:03:46.627Z,1736
2016-05-24T05:04:46.629Z,1804
2016-05-24T05:05:46.445Z,2084
2016-05-24T05:06:46.400Z,2064
2016-05-24T05:07:46.544Z,2232
2016-05-24T05:08:46.531Z,1944
2016-05-24T05:09:46.487Z,2064
2016-05-24T05:10:46.458Z,1860
2016-05-24T05:11:46.445Z,1880
2016-05-24T05:12:46.105Z,1988
2016-05-24T05:13:46.248Z,1932
2016-05-24T05:14:46.360Z,2076
2016-05-24T05:15:46.347Z,2192
2016-05-24T05:16:46.333Z,2400
2016-05-24T05:17:46.133Z,2268
2016-05-24T05:18:45.964Z,2452
2016-05-24T05:19:46.249Z,2304
2016-05-24T05:20:46.219Z,2676
2016-05-24T05:21:46.207Z,2640
2016-05-24T05:22:46.178Z,2116
2016-05-24T05:23:46.150Z,3104
2016-05-24T05:24:46.120Z,2676
2016-05-24T05:25:45.936Z,3128
2016-05-24T05:26:45.924Z,2880
2016-05-24T05:27:46.066Z,2672
2016-05-24T05:28:46.037Z,2768
2016-05-24T05:29:46.571Z,2412
2016-05-24T05:30:45.824Z,2468
2016-05-24T05:31:45.968Z,2524
2016-05-24T05:32:45.798Z,2832
2016-05-24T05:33:45.912Z,2896
2016-05-24T05:34:45.898Z,3080
2016-05-24T05:35:45.869Z,3068
2016-05-24T05:36:45.685Z,2880
2016-05-24T05:37:45.656Z,2772
2016-05-24T05:38:45.627Z,2708
2016-05-24T05:39:45.770Z,2676
2016-05-24T05:40:45.758Z,2600
2016-05-24T05:41:45.745Z,2424
2016-05-24T05:42:45.700Z,2472
2016-05-24T05:43:45.531Z,3152
2016-05-24T05:44:45.503Z,2820
2016-05-24T05:45:45.880Z,2592
2016-05-24T05:46:45.492Z,2500
2016-05-24T05:47:45.573Z,2772
2016-05-24T05:48:45.560Z,2652
2016-05-24T05:49:45.564Z,2264
2016-05-24T05:50:45.347Z,2352
2016-05-24T05:51:45.491Z,2612
2016-05-24T05:52:45.462Z,2460
2016-05-24T05:53:45.449Z,2544
2016-05-24T05:54:45.404Z,2368
2016-05-24T05:55:45.391Z,2412
2016-05-24T05:56:45.379Z,2488
2016-05-24T05:57:45.179Z,2808
2016-05-24T05:58:45.321Z,2936
2016-05-24T05:59:45.309Z,3208
2016-05-24T06:00:46.171Z,3340
2016-05-24T06:01:45.251Z,3376
2016-05-24T06:02:45.067Z,3568
2016-05-24T06:03:45.053Z,3768
2016-05-24T06:04:45.182Z,4460
2016-05-24T06:05:45.012Z,5624
2016-05-24T06:06:45.140Z,5424
2016-05-24T06:07:44.939Z,4380
2016-05-24T06:08:45.098Z,4256
2016-05-24T06:09:45.053Z,4164
2016-05-24T06:10:44.931Z,4808
2016-05-24T06:11:45.373Z,6232
2016-05-24T06:12:46.562Z,4788
2016-05-24T06:13:44.799Z,5784
2016-05-24T06:14:44.975Z,5728
2016-05-24T06:15:48.789Z,5192
2016-05-24T06:16:46.104Z,4576
2016-05-24T06:17:44.872Z,4024
2016-05-24T06:18:44.860Z,4008
2016-05-24T06:19:44.675Z,4284
2016-05-24T06:20:44.803Z,4760
2016-05-24T06:21:44.790Z,4008
2016-05-24T06:22:44.761Z,3868
2016-05-24T06:23:44.732Z,3916
2016-05-24T06:24:44.704Z,3912
2016-05-24T06:25:44.676Z,4180
2016-05-24T06:26:44.507Z,5732
2016-05-24T06:27:44.649Z,7332
2016-05-24T06:28:44.637Z,6852
2016-05-24T06:29:44.593Z,6072
2016-05-24T06:30:44.485Z,5260
2016-05-24T06:31:44.567Z,5792
2016-05-24T06:32:44.523Z,5804
2016-05-24T06:33:44.338Z,5120
2016-05-24T06:34:44.481Z,4788
2016-05-24T06:35:44.453Z,5016
2016-05-24T06:36:44.268Z,5192
2016-05-24T06:37:44.254Z,5804
2016-05-24T06:38:44.398Z,5552
2016-05-24T06:39:44.354Z,5156
2016-05-24T06:40:44.342Z,4928
2016-05-24T06:41:44.328Z,5112
2016-05-24T06:42:44.299Z,4460
2016-05-24T06:43:44.270Z,4408
2016-05-24T06:44:44.242Z,4436
2016-05-24T06:45:44.120Z,4180
2016-05-24T06:46:44.201Z,3940
2016-05-24T06:47:44.188Z,3888
2016-05-24T06:48:44.159Z,3956
2016-05-24T06:49:44.131Z,3756
2016-05-24T06:50:44.306Z,3760
2016-05-24T06:51:44.089Z,3544
2016-05-24T06:52:44.061Z,3572
2016-05-24T06:53:44.047Z,3760
2016-05-24T06:54:44.050Z,3600
2016-05-24T06:55:43.850Z,3660
2016-05-24T06:56:43.977Z,3824
2016-05-24T06:57:43.965Z,3884
2016-05-24T06:58:43.999Z,3700
2016-05-24T06:59:43.893Z,3704
2016-05-24T07:00:43.739Z,3720
2016-05-24T07:01:43.851Z,3740
2016-05-24T07:02:43.854Z,3744
2016-05-24T07:03:43.809Z,3964
2016-05-24T07:04:43.796Z,4264
2016-05-24T07:05:43.768Z,4616
2016-05-24T07:06:43.754Z,4812
2016-05-24T07:07:43.742Z,5616
2016-05-24T07:08:43.542Z,5880
2016-05-24T07:09:43.670Z,6444
2016-05-24T07:10:43.640Z,6212
2016-05-24T07:11:43.471Z,5184
2016-05-24T07:12:43.459Z,5012
2016-05-24T07:13:43.571Z,6036
2016-05-24T07:14:43.558Z,5684
2016-05-24T07:15:43.435Z,5364
2016-05-24T07:16:43.547Z,5904
2016-05-24T07:17:43.487Z,6032
2016-05-24T07:18:43.489Z,5456
2016-05-24T07:19:43.446Z,5448
2016-05-24T07:20:43.324Z,5388
2016-05-24T07:21:43.389Z,5972
2016-05-24T07:22:43.375Z,5772
2016-05-24T07:23:43.425Z,5880
2016-05-24T07:24:43.366Z,5888
2016-05-24T07:25:43.369Z,4940
2016-05-24T07:26:43.293Z,4760
2016-05-24T07:27:43.327Z,5120
2016-05-24T07:28:42.939Z,5112
2016-05-24T07:29:43.066Z,5756
2016-05-24T07:30:43.022Z,6204
2016-05-24T07:31:43.024Z,6560
2016-05-24T07:32:43.152Z,6632
2016-05-24T07:33:43.124Z,6256
2016-05-24T07:34:43.112Z,5972
2016-05-24T07:35:43.082Z,5776
2016-05-24T07:36:42.913Z,5484
2016-05-24T07:37:43.041Z,4812
2016-05-24T07:38:42.857Z,4452
2016-05-24T07:39:42.843Z,4524
2016-05-24T07:40:42.737Z,6248
2016-05-24T07:41:42.942Z,6688
2016-05-24T07:42:42.914Z,5212
2016-05-24T07:43:42.964Z,5120
2016-05-24T07:44:42.888Z,5484
2016-05-24T07:45:43.220Z,6144
2016-05-24T07:46:42.690Z,6580
2016-05-24T07:47:42.817Z,5332
2016-05-24T07:48:42.790Z,4460
2016-05-24T07:49:42.855Z,5008
2016-05-24T07:50:42.748Z,5272
2016-05-24T07:51:42.564Z,5848
2016-05-24T07:52:42.706Z,6152
2016-05-24T07:53:42.522Z,6168
2016-05-24T07:54:42.758Z,6352
2016-05-24T07:55:42.746Z,7460
2016-05-24T07:56:42.296Z,8916
2016-05-24T07:57:42.580Z,8272
2016-05-24T07:58:42.738Z,8988
2016-05-24T07:59:42.569Z,6900
2016-05-24T08:00:42.477Z,5688
2016-05-24T08:01:42.512Z,5140
2016-05-24T08:02:42.468Z,5412
2016-05-24T08:03:42.346Z,5448
2016-05-24T08:04:42.536Z,4960
2016-05-24T08:05:42.632Z,5672
2016-05-24T08:06:42.401Z,7040
2016-05-24T08:07:42.371Z,8036
2016-05-24T08:08:42.343Z,8300
2016-05-24T08:09:42.393Z,8104
2016-05-24T08:10:42.302Z,7768
2016-05-24T08:11:42.382Z,6880
2016-05-24T08:12:42.307Z,6652
2016-05-24T08:13:42.076Z,7292
2016-05-24T08:14:42.047Z,5384
2016-05-24T08:15:42.050Z,4796
2016-05-24T08:16:42.178Z,4968
2016-05-24T08:17:41.993Z,4792
2016-05-24T08:18:41.808Z,5008
2016-05-24T08:19:41.966Z,5228
2016-05-24T08:20:41.922Z,5884
2016-05-24T08:21:42.051Z,7508
2016-05-24T08:22:42.084Z,7640
2016-05-24T08:23:41.869Z,6112
2016-05-24T08:24:41.997Z,6068
2016-05-24T08:25:41.733Z,5792
2016-05-24T08:26:41.938Z,5788
2016-05-24T08:27:41.941Z,6224
2016-05-24T08:28:41.897Z,5784
2016-05-24T08:29:41.713Z,5556
2016-05-24T08:30:45.152Z,5640
2016-05-24T08:31:41.702Z,6964
2016-05-24T08:32:41.814Z,8368
2016-05-24T08:33:41.879Z,9992
2016-05-24T08:34:41.616Z,11772
2016-05-24T08:35:41.760Z,12960
2016-05-24T08:36:41.404Z,11184
2016-05-24T08:37:41.718Z,7828
2016-05-24T08:38:41.612Z,6160
2016-05-24T08:39:41.489Z,7076
2016-05-24T08:40:41.710Z,8028
2016-05-24T08:41:41.620Z,7920
2016-05-24T08:42:41.685Z,8028
2016-05-24T08:43:41.563Z,8048
2016-05-24T08:44:41.550Z,8208
2016-05-24T08:45:41.615Z,9400
2016-05-24T08:46:41.508Z,9032
2016-05-24T08:47:41.542Z,8648
2016-05-24T08:48:41.310Z,8584
2016-05-24T08:49:41.641Z,9072
2016-05-24T08:50:41.192Z,10668
2016-05-24T08:51:41.240Z,11788
2016-05-24T08:52:41.367Z,12112
2016-05-24T08:53:41.058Z,11972
2016-05-24T08:54:41.342Z,10588
2016-05-24T08:55:41.297Z,10056
2016-05-24T08:56:41.286Z,9824
2016-05-24T08:57:41.116Z,7468
2016-05-24T08:58:41.197Z,6624
2016-05-24T08:59:41.074Z,7168
2016-05-24T09:00:41.296Z,7476
2016-05-24T09:01:41.017Z,6708
2016-05-24T09:02:41.160Z,5804
2016-05-24T09:03:40.992Z,6212
2016-05-24T09:04:41.104Z,6108
2016-05-24T09:05:41.106Z,6428
2016-05-24T09:06:40.765Z,6488
2016-05-24T09:07:41.033Z,6396
2016-05-24T09:08:41.021Z,6412
2016-05-24T09:09:41.054Z,6968
2016-05-24T09:10:40.916Z,7136
2016-05-24T09:11:40.966Z,7796
2016-05-24T09:12:41.016Z,8612
2016-05-24T09:13:40.909Z,9020
2016-05-24T09:14:40.740Z,8564
2016-05-24T09:15:40.837Z,8236
2016-05-24T09:16:40.698Z,7536
2016-05-24T09:17:40.842Z,8056
2016-05-24T09:18:40.797Z,9224
2016-05-24T09:19:40.800Z,9132
2016-05-24T09:20:40.772Z,7840
2016-05-24T09:21:40.806Z,8020
2016-05-24T09:22:40.714Z,8116
2016-05-24T09:23:40.795Z,8056
2016-05-24T09:24:40.517Z,7668
2016-05-24T09:25:40.661Z,7216
2016-05-24T09:26:40.459Z,7884
2016-05-24T09:27:40.461Z,9164
2016-05-24T09:28:40.590Z,10276
2016-05-24T09:29:40.405Z,9196
2016-05-24T09:30:41.189Z,9172
2016-05-24T09:31:40.583Z,10128
2016-05-24T09:32:40.632Z,9588
2016-05-24T09:33:40.478Z,10368
2016-05-24T09:34:40.356Z,10084
2016-05-24T09:35:40.468Z,10580
2016-05-24T09:36:40.517Z,10544
2016-05-24T09:37:40.443Z,9736
2016-05-24T09:38:40.054Z,10460
2016-05-24T09:39:40.369Z,10204
2016-05-24T09:40:40.326Z,10020
2016-05-24T09:41:40.406Z,10612
2016-05-24T09:42:40.284Z,11244
2016-05-24T09:43:40.271Z,13088
2016-05-24T09:44:40.086Z,15188
2016-05-24T09:45:40.870Z,15548
2016-05-24T09:46:40.512Z,14692
2016-05-24T09:47:40.266Z,13348
2016-05-24T09:48:40.160Z,12156
2016-05-24T09:49:40.145Z,13244
2016-05-24T09:50:40.056Z,15652
2016-05-24T09:51:39.776Z,16740
2016-05-24T09:52:40.092Z,15824
2016-05-24T09:53:40.048Z,15428
2016-05-24T09:54:39.878Z,16112
2016-05-24T09:55:40.631Z,14156
2016-05-24T09:56:39.900Z,10528
2016-05-24T09:57:39.824Z,9620
2016-05-24T09:58:40.077Z,9836
2016-05-24T09:59:39.923Z,9628
2016-05-24T10:00:40.036Z,10996
2016-05-24T10:01:39.913Z,10704
2016-05-24T10:02:39.869Z,10000
2016-05-24T10:03:39.684Z,9616
2016-05-24T10:04:39.827Z,10276
2016-05-24T10:05:39.845Z,11100
2016-05-24T10:06:39.565Z,11400
2016-05-24T10:07:39.902Z,11680
2016-05-24T10:08:39.801Z,12008
2016-05-24T10:09:39.795Z,12056
2016-05-24T10:10:39.648Z,12108
2016-05-24T10:11:39.648Z,12256
2016-05-24T10:12:39.784Z,13020
2016-05-24T10:13:39.310Z,14608
2016-05-24T10:14:41.976Z,15636
2016-05-24T10:15:40.363Z,13672
2016-05-24T10:16:39.574Z,11476
2016-05-24T10:17:39.751Z,9504
2016-05-24T10:18:39.694Z,8208
2016-05-24T10:19:39.683Z,7400
2016-05-24T10:20:39.517Z,6892
2016-05-24T10:21:41.787Z,6768
2016-05-24T10:22:39.619Z,6656
2016-05-24T10:23:39.608Z,6584
2016-05-24T10:24:39.579Z,6472
2016-05-24T10:25:39.396Z,6508
2016-05-24T10:26:41.369Z,6416
2016-05-24T10:27:39.387Z,6064
2016-05-24T10:28:39.500Z,6500
2016-05-24T10:29:39.315Z,6364
2016-05-24T10:30:39.896Z,6372
2016-05-24T10:31:39.430Z,8548
2016-05-24T10:32:39.355Z,10820
2016-05-24T10:33:39.404Z,11596
2016-05-24T10:34:39.454Z,11604
2016-05-24T10:35:39.222Z,10844
2016-05-24T10:36:39.334Z,10172
2016-05-24T10:37:39.321Z,10428
2016-05-24T10:38:39.137Z,10576
2016-05-24T10:39:39.436Z,10236
2016-05-24T10:40:39.345Z,10024
2016-05-24T10:41:39.239Z,10532
2016-05-24T10:42:39.209Z,11508
2016-05-24T10:43:39.275Z,12808
2016-05-24T10:44:39.200Z,13984
2016-05-24T10:45:38.999Z,14624
2016-05-24T10:46:39.111Z,14936
2016-05-24T10:47:39.052Z,15108
2016-05-24T10:48:39.101Z,15364
2016-05-24T10:49:39.057Z,15552
2016-05-24T10:50:39.044Z,15624
2016-05-24T10:51:39.016Z,16776
2016-05-24T10:52:39.002Z,17740
2016-05-24T10:53:38.989Z,19296
2016-05-24T10:54:38.898Z,22848
2016-05-24T10:55:39.041Z,26560
2016-05-24T10:56:38.982Z,26784
2016-05-24T10:57:38.891Z,24416
2016-05-24T10:58:38.721Z,23968
2016-05-24T10:59:38.693Z,22048
2016-05-24T11:00:38.804Z,20576
2016-05-24T11:01:38.902Z,18204
2016-05-24T11:02:38.638Z,16248
2016-05-24T11:03:38.782Z,14496
2016-05-24T11:04:38.754Z,12512
2016-05-24T11:05:38.740Z,10800
2016-05-24T11:06:38.759Z,9908
2016-05-24T11:07:38.731Z,9460
2016-05-24T11:08:38.748Z,10112
2016-05-24T11:09:38.501Z,10836
2016-05-24T11:10:38.348Z,9104
2016-05-24T11:11:38.459Z,7152
2016-05-24T11:12:38.587Z,6396
2016-05-24T11:13:38.589Z,6476
2016-05-24T11:14:38.265Z,6500
2016-05-24T11:15:38.830Z,6732
2016-05-24T11:16:38.519Z,7536
2016-05-24T11:17:38.554Z,9436
2016-05-24T11:18:38.478Z,11472
2016-05-24T11:19:38.466Z,11708
2016-05-24T11:20:38.312Z,12020
2016-05-24T11:21:38.268Z,12880
2016-05-24T11:22:38.255Z,15044
2016-05-24T11:23:38.524Z,16684
2016-05-24T11:24:38.432Z,18528
2016-05-24T11:25:38.341Z,19168
2016-05-24T11:26:38.328Z,18092
2016-05-24T11:27:38.159Z,17448
2016-05-24T11:28:38.146Z,17544
2016-05-24T11:29:38.274Z,17236
2016-05-24T11:30:37.949Z,15960
2016-05-24T11:31:38.216Z,16396
2016-05-24T11:32:38.282Z,15568
2016-05-24T11:33:38.035Z,14540
2016-05-24T11:34:38.194Z,14372
2016-05-24T11:35:38.165Z,13216
2016-05-24T11:36:38.120Z,12448
2016-05-24T11:37:38.107Z,13016
2016-05-24T11:38:37.923Z,14620
2016-05-24T11:39:38.098Z,14188
2016-05-24T11:40:37.928Z,11028
2016-05-24T11:41:37.634Z,9784
2016-05-24T11:42:38.028Z,10972
2016-05-24T11:43:37.998Z,11528
2016-05-24T11:44:37.986Z,11776
2016-05-24T11:45:38.175Z,11892
2016-05-24T11:46:37.788Z,12516
2016-05-24T11:47:37.916Z,13124
2016-05-24T11:48:37.747Z,14040
2016-05-24T11:49:37.875Z,15656
2016-05-24T11:50:37.862Z,15064
2016-05-24T11:51:37.848Z,15100
2016-05-24T11:52:37.883Z,16188
2016-05-24T11:53:37.808Z,19232
2016-05-24T11:54:37.794Z,21472
2016-05-24T11:55:37.766Z,20768
2016-05-24T11:56:37.846Z,21120
2016-05-24T11:57:37.724Z,21664
2016-05-24T11:58:37.696Z,21856
2016-05-24T11:59:37.682Z,21408
2016-05-24T12:00:37.841Z,20384
2016-05-24T12:01:37.735Z,20128
2016-05-24T12:02:37.628Z,20128
2016-05-24T12:03:37.709Z,20736
2016-05-24T12:04:37.587Z,19424
2016-05-24T12:05:37.480Z,18224
2016-05-24T12:06:37.545Z,16616
2016-05-24T12:07:37.532Z,15376
2016-05-24T12:08:37.566Z,14352
2016-05-24T12:09:37.491Z,11280
2016-05-24T12:10:37.478Z,8820
2016-05-24T12:11:37.465Z,8024
2016-05-24T12:12:37.420Z,7168
2016-05-24T12:13:37.423Z,6972
2016-05-24T12:14:37.551Z,7156
2016-05-24T12:15:37.663Z,6856
2016-05-24T12:16:37.400Z,6680
2016-05-24T12:17:37.184Z,6920
2016-05-24T12:18:37.312Z,6800
2016-05-24T12:19:37.299Z,7752
2016-05-24T12:20:37.129Z,8308
2016-05-24T12:21:37.289Z,8388
2016-05-24T12:22:37.244Z,8388
2016-05-24T12:23:37.231Z,8848
2016-05-24T12:24:37.405Z,9404
2016-05-24T12:25:37.206Z,9960
2016-05-24T12:26:36.849Z,11008
2016-05-24T12:27:37.038Z,11020
2016-05-24T12:28:37.119Z,11060
2016-05-24T12:29:37.091Z,11836
2016-05-24T12:30:37.079Z,12680
2016-05-24T12:31:37.097Z,12628
2016-05-24T12:32:36.896Z,13796
2016-05-24T12:33:36.868Z,15884
2016-05-24T12:34:36.996Z,17760
2016-05-24T12:35:36.983Z,19712
2016-05-24T12:36:36.954Z,20448
2016-05-24T12:37:36.926Z,17776
2016-05-24T12:38:36.943Z,16096
2016-05-24T12:39:36.678Z,16128
2016-05-24T12:40:36.996Z,16952
2016-05-24T12:41:36.715Z,16924
2016-05-24T12:42:36.842Z,14240
2016-05-24T12:43:36.657Z,12760
2016-05-24T12:44:36.925Z,11048
2016-05-24T12:45:37.041Z,9928
2016-05-24T12:46:36.760Z,9800
2016-05-24T12:47:36.778Z,10360
2016-05-24T12:48:36.717Z,9572
2016-05-24T12:49:36.720Z,9808
2016-05-24T12:50:36.708Z,11324
2016-05-24T12:51:36.648Z,11160
2016-05-24T12:52:36.651Z,11720
2016-05-24T12:53:36.638Z,14628
2016-05-24T12:54:36.719Z,16512
2016-05-24T12:55:36.440Z,14948
2016-05-24T12:56:36.599Z,14456
2016-05-24T12:57:36.399Z,15820
2016-05-24T12:58:36.510Z,17560
2016-05-24T12:59:36.529Z,18688
2016-05-24T13:00:36.391Z,19136
2016-05-24T13:01:36.471Z,18784
2016-05-24T13:02:36.302Z,19072
2016-05-24T13:03:36.305Z,18848
2016-05-24T13:04:36.245Z,18912
2016-05-24T13:05:36.263Z,18560
2016-05-24T13:06:36.313Z,18044
2016-05-24T13:07:36.410Z,16980
2016-05-24T13:08:36.334Z,16960
2016-05-24T13:09:36.306Z,15692
2016-05-24T13:10:36.261Z,12768
2016-05-24T13:11:36.280Z,11512
2016-05-24T13:12:36.095Z,11520
2016-05-24T13:13:36.238Z,12296
2016-05-24T13:14:36.398Z,12716
2016-05-24T13:15:36.650Z,12712
2016-05-24T13:16:36.184Z,12848
2016-05-24T13:17:36.155Z,12760
2016-05-24T13:18:36.158Z,10616
2016-05-24T13:19:35.958Z,8548
2016-05-24T13:20:36.117Z,7384
2016-05-24T13:21:36.072Z,8548
2016-05-24T13:22:36.059Z,11680
2016-05-24T13:23:35.983Z,13500
2016-05-24T13:24:36.017Z,13924
2016-05-24T13:25:36.317Z,14008
2016-05-24T13:26:35.835Z,12604
2016-05-24T13:27:35.933Z,11664
2016-05-24T13:28:35.936Z,12680
2016-05-24T13:29:35.922Z,14176
2016-05-24T13:30:36.206Z,14016
2016-05-24T13:31:35.740Z,12380
2016-05-24T13:32:35.946Z,10320
2016-05-24T13:33:35.855Z,8768
2016-05-24T13:34:35.888Z,7708
2016-05-24T13:35:35.813Z,6804